sensor_id;sensor_type;location;lat;lon;timestamp;temperature;humidity
20337;DHT22;10326;53.660;10.200;2023-08-12T00:01:16;22.80;89.10
20337;DHT22;10326;53.660;10.200;2023-08-12T00:03:48;22.80;89.20
20337;DHT22;10326;53.660;10.200;2023-08-12T00:06:15;22.80;89.20
20337;DHT22;10326;53.660;10.200;2023-08-12T00:08:42;22.80;89.10
20337;DHT22;10326;53.660;10.200;2023-08-12T00:11:09;22.80;89.10
20337;DHT22;10326;53.660;10.200;2023-08-12T00:13:37;22.80;89.20
20337;DHT22;10326;53.660;10.200;2023-08-12T00:16:04;22.80;89.20
20337;DHT22;10326;53.660;10.200;2023-08-12T00:18:31;22.70;89.10
20337;DHT22;10326;53.660;10.200;2023-08-12T00:21:06;22.70;89.10
20337;DHT22;10326;53.660;10.200;2023-08-12T00:23:37;22.70;89.30
20337;DHT22;10326;53.660;10.200;2023-08-12T00:26:06;22.70;89.20
20337;DHT22;10326;53.660;10.200;2023-08-12T00:28:33;22.70;89.10
20337;DHT22;10326;53.660;10.200;2023-08-12T00:31:01;22.70;89.20
20337;DHT22;10326;53.660;10.200;2023-08-12T00:33:28;22.70;89.30
20337;DHT22;10326;53.660;10.200;2023-08-12T00:35:55;22.70;89.30
20337;DHT22;10326;53.660;10.200;2023-08-12T00:38:24;22.70;89.30
20337;DHT22;10326;53.660;10.200;2023-08-12T00:40:51;22.70;89.40
20337;DHT22;10326;53.660;10.200;2023-08-12T00:43:18;22.60;89.40
20337;DHT22;10326;53.660;10.200;2023-08-12T00:45:46;22.60;89.40
20337;DHT22;10326;53.660;10.200;2023-08-12T00:48:14;22.60;89.30
20337;DHT22;10326;53.660;10.200;2023-08-12T00:50:43;22.60;89.50
20337;DHT22;10326;53.660;10.200;2023-08-12T00:53:13;22.60;89.50
20337;DHT22;10326;53.660;10.200;2023-08-12T00:55:43;22.60;89.40
20337;DHT22;10326;53.660;10.200;2023-08-12T00:58:10;22.60;89.50
20337;DHT22;10326;53.660;10.200;2023-08-12T01:00:40;22.60;90.00
20337;DHT22;10326;53.660;10.200;2023-08-12T01:03:07;22.50;89.40
20337;DHT22;10326;53.660;10.200;2023-08-12T01:05:35;22.50;89.40
20337;DHT22;10326;53.660;10.200;2023-08-12T01:08:03;22.50;89.50
20337;DHT22;10326;53.660;10.200;2023-08-12T01:10:34;22.50;89.60
20337;DHT22;10326;53.660;10.200;2023-08-12T01:13:11;22.50;89.60
20337;DHT22;10326;53.660;10.200;2023-08-12T01:15:44;22.50;89.80
20337;DHT22;10326;53.660;10.200;2023-08-12T01:18:12;22.50;89.60
20337;DHT22;10326;53.660;10.200;2023-08-12T01:20:41;22.50;89.70
20337;DHT22;10326;53.660;10.200;2023-08-12T01:23:13;22.50;89.60
20337;DHT22;10326;53.660;10.200;2023-08-12T01:25:41;22.50;89.80
20337;DHT22;10326;53.660;10.200;2023-08-12T01:28:08;22.50;89.80
20337;DHT22;10326;53.660;10.200;2023-08-12T01:30:42;22.50;89.70
20337;DHT22;10326;53.660;10.200;2023-08-12T01:33:18;22.40;89.70
20337;DHT22;10326;53.660;10.200;2023-08-12T01:35:54;22.40;89.60
20337;DHT22;10326;53.660;10.200;2023-08-12T01:38:26;22.40;89.70
20337;DHT22;10326;53.660;10.200;2023-08-12T01:40:55;22.40;89.70
20337;DHT22;10326;53.660;10.200;2023-08-12T01:43:23;22.40;90.00
20337;DHT22;10326;53.660;10.200;2023-08-12T01:45:51;22.40;89.80
20337;DHT22;10326;53.660;10.200;2023-08-12T01:48:18;22.40;89.80
20337;DHT22;10326;53.660;10.200;2023-08-12T01:50:48;22.40;89.90
20337;DHT22;10326;53.660;10.200;2023-08-12T01:53:15;22.30;89.90
20337;DHT22;10326;53.660;10.200;2023-08-12T01:55:45;22.30;89.90
20337;DHT22;10326;53.660;10.200;2023-08-12T01:58:12;22.30;90.00
20337;DHT22;10326;53.660;10.200;2023-08-12T02:00:39;22.30;90.00
20337;DHT22;10326;53.660;10.200;2023-08-12T02:03:06;22.30;90.00
20337;DHT22;10326;53.660;10.200;2023-08-12T02:05:34;22.30;89.90
20337;DHT22;10326;53.660;10.200;2023-08-12T02:08:04;22.30;90.00
20337;DHT22;10326;53.660;10.200;2023-08-12T02:10:34;22.20;90.00
20337;DHT22;10326;53.660;10.200;2023-08-12T02:13:03;22.20;90.00
20337;DHT22;10326;53.660;10.200;2023-08-12T02:15:30;22.20;90.00
20337;DHT22;10326;53.660;10.200;2023-08-12T02:17:58;22.20;90.00
20337;DHT22;10326;53.660;10.200;2023-08-12T02:20:25;22.20;90.00
20337;DHT22;10326;53.660;10.200;2023-08-12T02:22:53;22.20;90.00
20337;DHT22;10326;53.660;10.200;2023-08-12T02:25:20;22.20;90.00
20337;DHT22;10326;53.660;10.200;2023-08-12T02:27:47;22.20;90.00
20337;DHT22;10326;53.660;10.200;2023-08-12T02:30:16;22.20;90.00
20337;DHT22;10326;53.660;10.200;2023-08-12T02:32:43;22.10;90.10
20337;DHT22;10326;53.660;10.200;2023-08-12T02:35:12;22.10;90.00
20337;DHT22;10326;53.660;10.200;2023-08-12T02:37:39;22.10;90.10
20337;DHT22;10326;53.660;10.200;2023-08-12T02:40:07;22.10;90.10
20337;DHT22;10326;53.660;10.200;2023-08-12T02:42:37;22.10;90.00
20337;DHT22;10326;53.660;10.200;2023-08-12T02:45:05;22.10;90.10
20337;DHT22;10326;53.660;10.200;2023-08-12T02:47:34;22.10;90.10
20337;DHT22;10326;53.660;10.200;2023-08-12T02:50:01;22.00;90.00
20337;DHT22;10326;53.660;10.200;2023-08-12T02:52:29;22.00;90.00
20337;DHT22;10326;53.660;10.200;2023-08-12T02:54:57;22.00;90.10
20337;DHT22;10326;53.660;10.200;2023-08-12T02:57:24;22.00;90.00
20337;DHT22;10326;53.660;10.200;2023-08-12T02:59:52;22.00;90.00
20337;DHT22;10326;53.660;10.200;2023-08-12T03:02:19;22.00;90.10
20337;DHT22;10326;53.660;10.200;2023-08-12T03:04:48;22.00;90.10
20337;DHT22;10326;53.660;10.200;2023-08-12T03:07:15;22.00;90.10
20337;DHT22;10326;53.660;10.200;2023-08-12T03:09:43;21.90;90.10
20337;DHT22;10326;53.660;10.200;2023-08-12T03:12:10;21.90;90.10
20337;DHT22;10326;53.660;10.200;2023-08-12T03:14:37;21.90;90.10
20337;DHT22;10326;53.660;10.200;2023-08-12T03:17:04;21.90;90.10
20337;DHT22;10326;53.660;10.200;2023-08-12T03:19:34;21.90;90.20
20337;DHT22;10326;53.660;10.200;2023-08-12T03:22:03;21.90;90.20
20337;DHT22;10326;53.660;10.200;2023-08-12T03:24:31;21.90;90.20
20337;DHT22;10326;53.660;10.200;2023-08-12T03:26:59;21.90;90.20
20337;DHT22;10326;53.660;10.200;2023-08-12T03:29:26;21.90;90.20
20337;DHT22;10326;53.660;10.200;2023-08-12T03:31:54;21.90;90.30
20337;DHT22;10326;53.660;10.200;2023-08-12T03:34:22;21.80;90.30
20337;DHT22;10326;53.660;10.200;2023-08-12T03:36:49;21.90;90.40
20337;DHT22;10326;53.660;10.200;2023-08-12T03:39:20;21.90;90.40
20337;DHT22;10326;53.660;10.200;2023-08-12T03:41:47;21.90;90.40
20337;DHT22;10326;53.660;10.200;2023-08-12T03:44:17;21.90;90.40
20337;DHT22;10326;53.660;10.200;2023-08-12T03:46:44;21.90;90.40
20337;DHT22;10326;53.660;10.200;2023-08-12T03:49:11;21.90;90.30
20337;DHT22;10326;53.660;10.200;2023-08-12T03:51:40;21.80;90.40
20337;DHT22;10326;53.660;10.200;2023-08-12T03:54:07;21.90;90.40
20337;DHT22;10326;53.660;10.200;2023-08-12T03:56:35;21.90;90.40
20337;DHT22;10326;53.660;10.200;2023-08-12T03:59:03;21.80;90.40
20337;DHT22;10326;53.660;10.200;2023-08-12T04:01:31;21.80;90.40
20337;DHT22;10326;53.660;10.200;2023-08-12T04:03:58;21.80;90.40
20337;DHT22;10326;53.660;10.200;2023-08-12T04:06:25;21.80;90.40
20337;DHT22;10326;53.660;10.200;2023-08-12T04:08:53;21.80;90.50
20337;DHT22;10326;53.660;10.200;2023-08-12T04:11:20;21.80;90.50
20337;DHT22;10326;53.660;10.200;2023-08-12T04:13:49;21.70;90.50
20337;DHT22;10326;53.660;10.200;2023-08-12T04:16:16;21.70;90.50
20337;DHT22;10326;53.660;10.200;2023-08-12T04:18:44;21.70;90.50
20337;DHT22;10326;53.660;10.200;2023-08-12T04:21:11;21.70;90.50
20337;DHT22;10326;53.660;10.200;2023-08-12T04:23:38;21.70;90.50
20337;DHT22;10326;53.660;10.200;2023-08-12T04:26:06;21.70;90.50
20337;DHT22;10326;53.660;10.200;2023-08-12T04:28:34;21.70;90.50
20337;DHT22;10326;53.660;10.200;2023-08-12T04:31:06;21.70;90.60
20337;DHT22;10326;53.660;10.200;2023-08-12T04:33:35;21.70;90.60
20337;DHT22;10326;53.660;10.200;2023-08-12T04:36:03;21.60;90.50
20337;DHT22;10326;53.660;10.200;2023-08-12T04:38:32;21.60;90.60
20337;DHT22;10326;53.660;10.200;2023-08-12T04:41:03;21.60;90.60
20337;DHT22;10326;53.660;10.200;2023-08-12T04:43:30;21.60;90.70
20337;DHT22;10326;53.660;10.200;2023-08-12T04:45:58;21.60;90.70
20337;DHT22;10326;53.660;10.200;2023-08-12T04:48:27;21.60;90.80
20337;DHT22;10326;53.660;10.200;2023-08-12T04:50:54;21.60;90.80
20337;DHT22;10326;53.660;10.200;2023-08-12T04:53:25;21.70;90.90
20337;DHT22;10326;53.660;10.200;2023-08-12T04:55:55;21.60;90.80
20337;DHT22;10326;53.660;10.200;2023-08-12T04:58:23;21.60;90.90
20337;DHT22;10326;53.660;10.200;2023-08-12T05:00:51;21.60;90.90
20337;DHT22;10326;53.660;10.200;2023-08-12T05:03:20;21.60;90.90
20337;DHT22;10326;53.660;10.200;2023-08-12T05:05:50;21.60;90.90
20337;DHT22;10326;53.660;10.200;2023-08-12T05:08:20;21.60;91.00
20337;DHT22;10326;53.660;10.200;2023-08-12T05:10:47;21.60;91.00
20337;DHT22;10326;53.660;10.200;2023-08-12T05:13:15;21.60;91.00
20337;DHT22;10326;53.660;10.200;2023-08-12T05:15:45;21.60;91.00
20337;DHT22;10326;53.660;10.200;2023-08-12T05:18:14;21.60;91.00
20337;DHT22;10326;53.660;10.200;2023-08-12T05:20:42;21.60;91.00
20337;DHT22;10326;53.660;10.200;2023-08-12T05:23:11;21.60;91.00
20337;DHT22;10326;53.660;10.200;2023-08-12T05:25:39;21.70;91.10
20337;DHT22;10326;53.660;10.200;2023-08-12T05:28:06;21.70;91.10
20337;DHT22;10326;53.660;10.200;2023-08-12T05:30:34;21.70;91.10
20337;DHT22;10326;53.660;10.200;2023-08-12T05:33:01;21.70;91.20
20337;DHT22;10326;53.660;10.200;2023-08-12T05:35:32;21.70;91.20
20337;DHT22;10326;53.660;10.200;2023-08-12T05:38:00;21.70;91.30
20337;DHT22;10326;53.660;10.200;2023-08-12T05:40:28;21.70;91.30
20337;DHT22;10326;53.660;10.200;2023-08-12T05:42:55;21.80;91.20
20337;DHT22;10326;53.660;10.200;2023-08-12T05:45:22;21.80;91.20
20337;DHT22;10326;53.660;10.200;2023-08-12T05:47:49;21.80;91.20
20337;DHT22;10326;53.660;10.200;2023-08-12T05:50:17;21.80;91.30
20337;DHT22;10326;53.660;10.200;2023-08-12T05:52:44;21.80;91.30
20337;DHT22;10326;53.660;10.200;2023-08-12T05:55:12;21.80;91.30
20337;DHT22;10326;53.660;10.200;2023-08-12T09:47:08;23.90;94.30
20337;DHT22;10326;53.660;10.200;2023-08-12T10:06:28;24.10;94.40
20337;DHT22;10326;53.660;10.200;2023-08-12T10:09:22;24.20;94.40
20337;DHT22;10326;53.660;10.200;2023-08-12T10:12:12;24.20;94.40
20337;DHT22;10326;53.660;10.200;2023-08-12T10:22:45;24.30;94.20
20337;DHT22;10326;53.660;10.200;2023-08-12T10:26:41;24.30;94.10
20337;DHT22;10326;53.660;10.200;2023-08-12T10:37:34;24.40;94.00
20337;DHT22;10326;53.660;10.200;2023-08-12T10:40:27;24.50;93.90
20337;DHT22;10326;53.660;10.200;2023-08-12T10:45:12;24.50;93.90
20337;DHT22;10326;53.660;10.200;2023-08-12T11:07:44;24.60;94.00
20337;DHT22;10326;53.660;10.200;2023-08-12T11:14:13;24.60;94.30
20337;DHT22;10326;53.660;10.200;2023-08-12T11:16:48;24.60;94.00
20337;DHT22;10326;53.660;10.200;2023-08-12T11:19:22;24.60;93.90
20337;DHT22;10326;53.660;10.200;2023-08-12T11:21:51;24.60;93.80
20337;DHT22;10326;53.660;10.200;2023-08-12T11:24:22;24.70;93.90
20337;DHT22;10326;53.660;10.200;2023-08-12T11:26:51;24.70;93.90
20337;DHT22;10326;53.660;10.200;2023-08-12T11:29:25;24.70;93.90
20337;DHT22;10326;53.660;10.200;2023-08-12T11:31:55;24.70;93.90
20337;DHT22;10326;53.660;10.200;2023-08-12T11:34:51;24.70;93.90
20337;DHT22;10326;53.660;10.200;2023-08-12T11:38:19;24.70;94.00
20337;DHT22;10326;53.660;10.200;2023-08-12T11:40:57;24.70;93.90
20337;DHT22;10326;53.660;10.200;2023-08-12T11:43:29;24.80;94.00
20337;DHT22;10326;53.660;10.200;2023-08-12T11:45:59;24.80;93.80
20337;DHT22;10326;53.660;10.200;2023-08-12T11:48:27;24.80;93.80
20337;DHT22;10326;53.660;10.200;2023-08-12T11:50:56;24.80;93.70
20337;DHT22;10326;53.660;10.200;2023-08-12T11:53:28;24.90;93.70
20337;DHT22;10326;53.660;10.200;2023-08-12T11:55:57;24.90;93.70
20337;DHT22;10326;53.660;10.200;2023-08-12T11:58:24;24.90;93.70
20337;DHT22;10326;53.660;10.200;2023-08-12T12:00:54;24.90;93.60
20337;DHT22;10326;53.660;10.200;2023-08-12T12:03:31;24.90;93.50
20337;DHT22;10326;53.660;10.200;2023-08-12T12:06:04;24.90;93.50
20337;DHT22;10326;53.660;10.200;2023-08-12T12:09:10;24.90;93.50
20337;DHT22;10326;53.660;10.200;2023-08-12T12:11:52;24.90;93.40
20337;DHT22;10326;53.660;10.200;2023-08-12T12:14:21;24.90;93.50
20337;DHT22;10326;53.660;10.200;2023-08-12T12:16:49;24.80;93.40
20337;DHT22;10326;53.660;10.200;2023-08-12T14:00:21;24.70;94.50
20337;DHT22;10326;53.660;10.200;2023-08-12T14:03:02;24.70;94.60
20337;DHT22;10326;53.660;10.200;2023-08-12T14:05:32;24.70;94.60
20337;DHT22;10326;53.660;10.200;2023-08-12T14:08:08;24.70;94.70
20337;DHT22;10326;53.660;10.200;2023-08-12T14:10:35;24.60;94.60
20337;DHT22;10326;53.660;10.200;2023-08-12T14:13:03;24.60;94.60
20337;DHT22;10326;53.660;10.200;2023-08-12T14:15:37;24.60;94.70
20337;DHT22;10326;53.660;10.200;2023-08-12T14:18:11;24.60;94.70
20337;DHT22;10326;53.660;10.200;2023-08-12T14:20:51;24.60;94.70
20337;DHT22;10326;53.660;10.200;2023-08-12T14:23:32;24.60;94.70
20337;DHT22;10326;53.660;10.200;2023-08-12T14:26:00;24.60;94.70
20337;DHT22;10326;53.660;10.200;2023-08-12T14:33:31;24.60;94.80
20337;DHT22;10326;53.660;10.200;2023-08-12T15:09:06;24.60;95.00
20337;DHT22;10326;53.660;10.200;2023-08-12T15:11:38;24.60;94.80
20337;DHT22;10326;53.660;10.200;2023-08-12T15:14:05;24.60;94.90
20337;DHT22;10326;53.660;10.200;2023-08-12T15:16:32;24.60;94.90
20337;DHT22;10326;53.660;10.200;2023-08-12T15:19:00;24.60;94.90
20337;DHT22;10326;53.660;10.200;2023-08-12T15:21:45;24.60;95.00
20337;DHT22;10326;53.660;10.200;2023-08-12T15:24:12;24.60;95.10
20337;DHT22;10326;53.660;10.200;2023-08-12T15:26:40;24.50;95.00
20337;DHT22;10326;53.660;10.200;2023-08-12T16:52:57;24.90;95.70
20337;DHT22;10326;53.660;10.200;2023-08-12T16:55:24;24.90;95.60
20337;DHT22;10326;53.660;10.200;2023-08-12T16:57:53;24.90;95.40
20337;DHT22;10326;53.660;10.200;2023-08-12T17:00:22;24.90;95.30
20337;DHT22;10326;53.660;10.200;2023-08-12T17:02:49;24.90;95.20
20337;DHT22;10326;53.660;10.200;2023-08-12T17:05:16;24.80;95.20
20337;DHT22;10326;53.660;10.200;2023-08-12T17:07:44;24.70;95.10
20337;DHT22;10326;53.660;10.200;2023-08-12T17:10:13;24.70;95.00
20337;DHT22;10326;53.660;10.200;2023-08-12T17:12:40;24.60;94.90
20337;DHT22;10326;53.660;10.200;2023-08-12T17:15:08;24.60;94.90
20337;DHT22;10326;53.660;10.200;2023-08-12T17:17:37;24.50;94.90
20337;DHT22;10326;53.660;10.200;2023-08-12T17:20:05;24.40;94.80
20337;DHT22;10326;53.660;10.200;2023-08-12T17:22:33;24.40;94.90
20337;DHT22;10326;53.660;10.200;2023-08-12T17:25:01;24.30;94.80
20337;DHT22;10326;53.660;10.200;2023-08-12T17:27:32;24.30;94.90
20337;DHT22;10326;53.660;10.200;2023-08-12T17:29:59;24.20;94.90
20337;DHT22;10326;53.660;10.200;2023-08-12T17:32:26;24.10;94.80
20337;DHT22;10326;53.660;10.200;2023-08-12T17:34:54;24.10;94.90
20337;DHT22;10326;53.660;10.200;2023-08-12T17:37:22;24.00;94.90
20337;DHT22;10326;53.660;10.200;2023-08-12T17:39:50;24.00;94.80
20337;DHT22;10326;53.660;10.200;2023-08-12T17:42:17;23.90;94.50
20337;DHT22;10326;53.660;10.200;2023-08-12T17:44:46;23.80;94.40
20337;DHT22;10326;53.660;10.200;2023-08-12T17:47:13;23.70;94.20
20337;DHT22;10326;53.660;10.200;2023-08-12T17:49:42;23.60;94.20
20337;DHT22;10326;53.660;10.200;2023-08-12T17:52:09;23.60;94.20
20337;DHT22;10326;53.660;10.200;2023-08-12T17:54:40;23.40;94.20
20337;DHT22;10326;53.660;10.200;2023-08-12T17:57:14;23.40;94.20
20337;DHT22;10326;53.660;10.200;2023-08-12T17:59:42;23.30;94.30
20337;DHT22;10326;53.660;10.200;2023-08-12T18:02:13;23.30;94.30
20337;DHT22;10326;53.660;10.200;2023-08-12T18:04:53;23.20;94.40
20337;DHT22;10326;53.660;10.200;2023-08-12T18:07:20;23.10;94.50
20337;DHT22;10326;53.660;10.200;2023-08-12T18:10:02;23.10;94.50
20337;DHT22;10326;53.660;10.200;2023-08-12T18:12:31;23.10;94.50
20337;DHT22;10326;53.660;10.200;2023-08-12T18:15:01;23.00;94.50
20337;DHT22;10326;53.660;10.200;2023-08-12T18:17:30;23.00;94.60
20337;DHT22;10326;53.660;10.200;2023-08-12T18:19:57;23.00;94.90
20337;DHT22;10326;53.660;10.200;2023-08-12T18:22:27;22.90;94.60
20337;DHT22;10326;53.660;10.200;2023-08-12T18:24:54;22.90;94.70
20337;DHT22;10326;53.660;10.200;2023-08-12T18:27:21;22.90;94.70
20337;DHT22;10326;53.660;10.200;2023-08-12T18:29:48;22.90;94.80
20337;DHT22;10326;53.660;10.200;2023-08-12T18:32:15;22.80;94.80
20337;DHT22;10326;53.660;10.200;2023-08-12T18:34:44;22.80;94.80
20337;DHT22;10326;53.660;10.200;2023-08-12T18:37:11;22.80;94.90
20337;DHT22;10326;53.660;10.200;2023-08-12T18:39:38;22.70;94.80
20337;DHT22;10326;53.660;10.200;2023-08-12T18:42:06;22.70;94.90
20337;DHT22;10326;53.660;10.200;2023-08-12T18:44:33;22.70;95.00
20337;DHT22;10326;53.660;10.200;2023-08-12T18:47:00;22.60;94.90
20337;DHT22;10326;53.660;10.200;2023-08-12T18:49:27;22.60;95.00
20337;DHT22;10326;53.660;10.200;2023-08-12T18:51:56;22.60;95.00
20337;DHT22;10326;53.660;10.200;2023-08-12T18:54:23;22.60;95.10
20337;DHT22;10326;53.660;10.200;2023-08-12T18:56:53;22.60;95.10
20337;DHT22;10326;53.660;10.200;2023-08-12T18:59:20;22.60;95.10
20337;DHT22;10326;53.660;10.200;2023-08-12T19:01:48;22.50;95.00
20337;DHT22;10326;53.660;10.200;2023-08-12T19:04:19;22.50;94.90
20337;DHT22;10326;53.660;10.200;2023-08-12T19:06:46;22.50;94.90
20337;DHT22;10326;53.660;10.200;2023-08-12T19:09:15;22.50;94.90
20337;DHT22;10326;53.660;10.200;2023-08-12T19:11:43;22.50;94.90
20337;DHT22;10326;53.660;10.200;2023-08-12T19:14:12;22.50;94.80
20337;DHT22;10326;53.660;10.200;2023-08-12T19:16:39;22.50;94.60
20337;DHT22;10326;53.660;10.200;2023-08-12T19:19:07;22.40;94.50
20337;DHT22;10326;53.660;10.200;2023-08-12T19:21:34;22.40;94.50
20337;DHT22;10326;53.660;10.200;2023-08-12T19:24:01;22.40;94.50
20337;DHT22;10326;53.660;10.200;2023-08-12T19:26:30;22.40;94.50
20337;DHT22;10326;53.660;10.200;2023-08-12T19:28:59;22.30;94.30
20337;DHT22;10326;53.660;10.200;2023-08-12T19:31:27;22.30;94.30
20337;DHT22;10326;53.660;10.200;2023-08-12T19:33:54;22.30;94.20
20337;DHT22;10326;53.660;10.200;2023-08-12T19:36:21;22.30;94.20
20337;DHT22;10326;53.660;10.200;2023-08-12T19:38:48;22.20;94.20
20337;DHT22;10326;53.660;10.200;2023-08-12T19:41:16;22.20;94.20
20337;DHT22;10326;53.660;10.200;2023-08-12T19:43:44;22.20;94.00
20337;DHT22;10326;53.660;10.200;2023-08-12T19:46:11;22.20;94.00
20337;DHT22;10326;53.660;10.200;2023-08-12T19:48:38;22.10;94.00
20337;DHT22;10326;53.660;10.200;2023-08-12T19:51:06;22.10;94.00
20337;DHT22;10326;53.660;10.200;2023-08-12T19:53:33;22.00;94.00
20337;DHT22;10326;53.660;10.200;2023-08-12T19:56:00;22.00;94.00
20337;DHT22;10326;53.660;10.200;2023-08-12T19:58:27;22.00;94.10
20337;DHT22;10326;53.660;10.200;2023-08-12T20:00:56;22.00;94.00
20337;DHT22;10326;53.660;10.200;2023-08-12T20:03:23;21.90;94.00
20337;DHT22;10326;53.660;10.200;2023-08-12T20:05:50;21.90;94.00
20337;DHT22;10326;53.660;10.200;2023-08-12T20:08:18;21.90;94.00
20337;DHT22;10326;53.660;10.200;2023-08-12T20:10:46;21.80;93.80
20337;DHT22;10326;53.660;10.200;2023-08-12T20:13:13;21.80;93.80
20337;DHT22;10326;53.660;10.200;2023-08-12T20:15:41;21.80;93.90
20337;DHT22;10326;53.660;10.200;2023-08-12T20:18:09;21.70;93.90
20337;DHT22;10326;53.660;10.200;2023-08-12T20:20:37;21.70;93.80
20337;DHT22;10326;53.660;10.200;2023-08-12T20:23:05;21.60;93.80
20337;DHT22;10326;53.660;10.200;2023-08-12T20:25:34;21.60;93.80
20337;DHT22;10326;53.660;10.200;2023-08-12T20:28:02;21.60;93.80
20337;DHT22;10326;53.660;10.200;2023-08-12T20:30:29;21.50;93.80
20337;DHT22;10326;53.660;10.200;2023-08-12T20:32:58;21.50;93.80
20337;DHT22;10326;53.660;10.200;2023-08-12T20:35:26;21.50;93.80
20337;DHT22;10326;53.660;10.200;2023-08-12T20:37:54;21.40;93.80
20337;DHT22;10326;53.660;10.200;2023-08-12T20:40:21;21.40;93.90
20337;DHT22;10326;53.660;10.200;2023-08-12T20:42:48;21.40;94.00
20337;DHT22;10326;53.660;10.200;2023-08-12T20:45:16;21.40;94.00
20337;DHT22;10326;53.660;10.200;2023-08-12T20:47:43;21.40;94.00
20337;DHT22;10326;53.660;10.200;2023-08-12T20:50:12;21.40;93.90
20337;DHT22;10326;53.660;10.200;2023-08-12T20:52:41;21.40;94.00
20337;DHT22;10326;53.660;10.200;2023-08-12T20:55:09;21.30;94.00
20337;DHT22;10326;53.660;10.200;2023-08-12T20:57:36;21.30;94.00
20337;DHT22;10326;53.660;10.200;2023-08-12T21:00:03;21.30;94.00
20337;DHT22;10326;53.660;10.200;2023-08-12T21:02:32;21.30;94.00
20337;DHT22;10326;53.660;10.200;2023-08-12T21:04:59;21.30;94.00
20337;DHT22;10326;53.660;10.200;2023-08-12T21:07:26;21.20;94.00
20337;DHT22;10326;53.660;10.200;2023-08-12T21:09:56;21.20;94.00
20337;DHT22;10326;53.660;10.200;2023-08-12T21:12:23;21.20;94.00
20337;DHT22;10326;53.660;10.200;2023-08-12T21:14:50;21.10;93.90
20337;DHT22;10326;53.660;10.200;2023-08-12T21:17:17;21.10;94.00
20337;DHT22;10326;53.660;10.200;2023-08-12T21:19:44;21.10;93.90
20337;DHT22;10326;53.660;10.200;2023-08-12T21:22:12;21.10;93.90
20337;DHT22;10326;53.660;10.200;2023-08-12T21:24:39;21.10;93.90
20337;DHT22;10326;53.660;10.200;2023-08-12T21:27:08;21.10;93.90
20337;DHT22;10326;53.660;10.200;2023-08-12T21:29:35;21.10;93.90
20337;DHT22;10326;53.660;10.200;2023-08-12T21:32:02;21.10;93.90
20337;DHT22;10326;53.660;10.200;2023-08-12T21:34:30;21.10;93.90
20337;DHT22;10326;53.660;10.200;2023-08-12T21:36:57;21.00;93.90
20337;DHT22;10326;53.660;10.200;2023-08-12T21:39:24;21.00;93.90
20337;DHT22;10326;53.660;10.200;2023-08-12T21:41:52;21.00;93.90
20337;DHT22;10326;53.660;10.200;2023-08-12T21:44:21;21.00;93.90
20337;DHT22;10326;53.660;10.200;2023-08-12T21:46:48;21.00;93.80
20337;DHT22;10326;53.660;10.200;2023-08-12T21:49:15;21.00;93.80
20337;DHT22;10326;53.660;10.200;2023-08-12T21:51:42;21.00;93.80
20337;DHT22;10326;53.660;10.200;2023-08-12T21:54:10;21.00;93.80
20337;DHT22;10326;53.660;10.200;2023-08-12T21:56:37;21.00;93.80
20337;DHT22;10326;53.660;10.200;2023-08-12T21:59:06;21.00;93.80
20337;DHT22;10326;53.660;10.200;2023-08-12T22:01:34;21.00;93.80
20337;DHT22;10326;53.660;10.200;2023-08-12T22:04:01;21.00;93.80
20337;DHT22;10326;53.660;10.200;2023-08-12T22:06:29;20.90;93.70
20337;DHT22;10326;53.660;10.200;2023-08-12T22:08:56;20.90;93.70
20337;DHT22;10326;53.660;10.200;2023-08-12T22:11:23;20.90;93.70
20337;DHT22;10326;53.660;10.200;2023-08-12T22:13:52;20.90;93.60
20337;DHT22;10326;53.660;10.200;2023-08-12T22:16:19;20.90;93.80
20337;DHT22;10326;53.660;10.200;2023-08-12T22:18:48;20.90;93.80
20337;DHT22;10326;53.660;10.200;2023-08-12T22:21:15;20.90;93.50
20337;DHT22;10326;53.660;10.200;2023-08-12T22:23:42;20.90;93.50
20337;DHT22;10326;53.660;10.200;2023-08-12T22:26:09;20.90;93.40
20337;DHT22;10326;53.660;10.200;2023-08-12T22:28:36;20.80;93.40
20337;DHT22;10326;53.660;10.200;2023-08-12T22:31:03;20.80;93.40
20337;DHT22;10326;53.660;10.200;2023-08-12T22:33:31;20.80;93.30
20337;DHT22;10326;53.660;10.200;2023-08-12T22:35:59;20.80;93.30
20337;DHT22;10326;53.660;10.200;2023-08-12T22:38:27;20.80;93.30
20337;DHT22;10326;53.660;10.200;2023-08-12T22:40:55;20.70;93.20
20337;DHT22;10326;53.660;10.200;2023-08-12T22:43:23;20.70;93.10
20337;DHT22;10326;53.660;10.200;2023-08-12T22:45:50;20.70;93.10
20337;DHT22;10326;53.660;10.200;2023-08-12T22:48:17;20.60;93.10
20337;DHT22;10326;53.660;10.200;2023-08-12T22:50:45;20.60;93.10
20337;DHT22;10326;53.660;10.200;2023-08-12T22:53:13;20.60;93.10
20337;DHT22;10326;53.660;10.200;2023-08-12T22:55:41;20.50;93.00
20337;DHT22;10326;53.660;10.200;2023-08-12T22:58:09;20.50;93.00
20337;DHT22;10326;53.660;10.200;2023-08-12T23:00:36;20.50;93.10
20337;DHT22;10326;53.660;10.200;2023-08-12T23:03:04;20.40;93.00
20337;DHT22;10326;53.660;10.200;2023-08-12T23:05:31;20.40;93.00
20337;DHT22;10326;53.660;10.200;2023-08-12T23:07:58;20.40;93.00
20337;DHT22;10326;53.660;10.200;2023-08-12T23:10:27;20.40;92.90
20337;DHT22;10326;53.660;10.200;2023-08-12T23:12:54;20.30;92.90
20337;DHT22;10326;53.660;10.200;2023-08-12T23:15:22;20.30;92.90
20337;DHT22;10326;53.660;10.200;2023-08-12T23:17:49;20.30;92.80
20337;DHT22;10326;53.660;10.200;2023-08-12T23:20:16;20.30;92.80
20337;DHT22;10326;53.660;10.200;2023-08-12T23:22:43;20.20;92.80
20337;DHT22;10326;53.660;10.200;2023-08-12T23:25:10;20.20;92.80
20337;DHT22;10326;53.660;10.200;2023-08-12T23:27:39;20.20;92.80
20337;DHT22;10326;53.660;10.200;2023-08-12T23:30:07;20.20;92.80
20337;DHT22;10326;53.660;10.200;2023-08-12T23:32:39;20.10;92.80
20337;DHT22;10326;53.660;10.200;2023-08-12T23:35:09;20.10;92.80
20337;DHT22;10326;53.660;10.200;2023-08-12T23:37:38;20.00;92.80
20337;DHT22;10326;53.660;10.200;2023-08-12T23:40:06;20.00;92.80
20337;DHT22;10326;53.660;10.200;2023-08-12T23:42:38;20.00;92.70
20337;DHT22;10326;53.660;10.200;2023-08-12T23:45:06;20.00;92.80
20337;DHT22;10326;53.660;10.200;2023-08-12T23:47:33;20.00;92.80
20337;DHT22;10326;53.660;10.200;2023-08-12T23:50:01;19.90;92.70
20337;DHT22;10326;53.660;10.200;2023-08-12T23:52:28;19.90;92.80
20337;DHT22;10326;53.660;10.200;2023-08-12T23:54:55;19.90;93.00
20337;DHT22;10326;53.660;10.200;2023-08-12T23:57:22;19.90;92.90
20337;DHT22;10326;53.660;10.200;2023-08-12T23:59:51;19.80;93.00
